sensor_id;sensor_type;location;lat;lon;timestamp;temperature;humidity
19999;DHT22;10160;50.926;4.374;2023-12-22T00:00:24;10.90;99.90
19999;DHT22;10160;50.926;4.374;2023-12-22T00:02:49;10.90;99.90
19999;DHT22;10160;50.926;4.374;2023-12-22T00:05:15;10.80;99.90
19999;DHT22;10160;50.926;4.374;2023-12-22T00:07:40;10.90;99.90
19999;DHT22;10160;50.926;4.374;2023-12-22T00:10:06;10.90;99.90
19999;DHT22;10160;50.926;4.374;2023-12-22T00:12:32;10.90;99.90
19999;DHT22;10160;50.926;4.374;2023-12-22T00:14:58;10.80;99.90
19999;DHT22;10160;50.926;4.374;2023-12-22T00:17:23;10.90;99.90
19999;DHT22;10160;50.926;4.374;2023-12-22T00:19:49;10.90;99.90
19999;DHT22;10160;50.926;4.374;2023-12-22T00:22:14;10.90;99.90
19999;DHT22;10160;50.926;4.374;2023-12-22T00:24:40;10.90;99.90
19999;DHT22;10160;50.926;4.374;2023-12-22T00:27:06;10.80;99.90
19999;DHT22;10160;50.926;4.374;2023-12-22T00:29:31;10.80;99.90
19999;DHT22;10160;50.926;4.374;2023-12-22T00:32:01;10.80;99.90
19999;DHT22;10160;50.926;4.374;2023-12-22T00:34:26;10.70;99.90
19999;DHT22;10160;50.926;4.374;2023-12-22T00:36:52;10.50;99.90
19999;DHT22;10160;50.926;4.374;2023-12-22T00:39:18;10.60;99.90
19999;DHT22;10160;50.926;4.374;2023-12-22T00:41:43;10.50;99.90
19999;DHT22;10160;50.926;4.374;2023-12-22T00:44:09;10.40;99.90
19999;DHT22;10160;50.926;4.374;2023-12-22T00:46:35;10.30;99.90
19999;DHT22;10160;50.926;4.374;2023-12-22T00:49:00;10.20;99.90
19999;DHT22;10160;50.926;4.374;2023-12-22T00:51:26;10.20;99.90
19999;DHT22;10160;50.926;4.374;2023-12-22T00:53:51;10.20;99.90
19999;DHT22;10160;50.926;4.374;2023-12-22T00:56:17;10.20;99.90
19999;DHT22;10160;50.926;4.374;2023-12-22T00:58:43;10.20;99.90
19999;DHT22;10160;50.926;4.374;2023-12-22T01:01:08;10.00;99.90
19999;DHT22;10160;50.926;4.374;2023-12-22T01:03:34;10.00;99.90
19999;DHT22;10160;50.926;4.374;2023-12-22T01:06:00;10.10;99.90
19999;DHT22;10160;50.926;4.374;2023-12-22T01:08:25;10.20;99.90
19999;DHT22;10160;50.926;4.374;2023-12-22T01:10:51;10.20;99.90
19999;DHT22;10160;50.926;4.374;2023-12-22T01:13:16;10.20;99.90
19999;DHT22;10160;50.926;4.374;2023-12-22T01:15:42;10.30;99.90
19999;DHT22;10160;50.926;4.374;2023-12-22T01:18:12;10.30;99.90
19999;DHT22;10160;50.926;4.374;2023-12-22T01:20:37;10.20;99.90
19999;DHT22;10160;50.926;4.374;2023-12-22T01:23:03;10.20;99.90
19999;DHT22;10160;50.926;4.374;2023-12-22T01:25:29;10.20;99.90
19999;DHT22;10160;50.926;4.374;2023-12-22T01:27:55;10.20;99.90
19999;DHT22;10160;50.926;4.374;2023-12-22T01:30:20;10.30;99.90
19999;DHT22;10160;50.926;4.374;2023-12-22T01:32:46;10.40;99.90
19999;DHT22;10160;50.926;4.374;2023-12-22T01:35:14;10.30;99.90
19999;DHT22;10160;50.926;4.374;2023-12-22T01:37:40;10.30;99.90
19999;DHT22;10160;50.926;4.374;2023-12-22T01:40:06;10.20;99.90
19999;DHT22;10160;50.926;4.374;2023-12-22T01:42:32;10.40;99.90
19999;DHT22;10160;50.926;4.374;2023-12-22T01:44:58;10.50;99.90
19999;DHT22;10160;50.926;4.374;2023-12-22T01:47:24;10.50;99.90
19999;DHT22;10160;50.926;4.374;2023-12-22T01:49:50;10.50;99.90
19999;DHT22;10160;50.926;4.374;2023-12-22T01:52:16;10.50;99.90
19999;DHT22;10160;50.926;4.374;2023-12-22T01:54:43;10.50;99.90
19999;DHT22;10160;50.926;4.374;2023-12-22T01:57:09;10.50;99.90
19999;DHT22;10160;50.926;4.374;2023-12-22T01:59:37;10.50;99.90
19999;DHT22;10160;50.926;4.374;2023-12-22T02:02:03;10.50;99.90
19999;DHT22;10160;50.926;4.374;2023-12-22T02:04:31;10.50;99.90
19999;DHT22;10160;50.926;4.374;2023-12-22T02:06:58;10.50;99.90
19999;DHT22;10160;50.926;4.374;2023-12-22T02:09:28;10.50;99.90
19999;DHT22;10160;50.926;4.374;2023-12-22T02:11:54;10.50;99.90
19999;DHT22;10160;50.926;4.374;2023-12-22T02:14:20;10.50;99.90
19999;DHT22;10160;50.926;4.374;2023-12-22T02:16:58;10.50;99.90
19999;DHT22;10160;50.926;4.374;2023-12-22T02:19:45;10.60;99.90
19999;DHT22;10160;50.926;4.374;2023-12-22T02:22:12;10.50;99.90
19999;DHT22;10160;50.926;4.374;2023-12-22T02:24:41;10.50;99.90
19999;DHT22;10160;50.926;4.374;2023-12-22T02:30:19;10.40;99.90
19999;DHT22;10160;50.926;4.374;2023-12-22T02:32:51;10.40;99.90
19999;DHT22;10160;50.926;4.374;2023-12-22T02:35:25;10.50;99.90
19999;DHT22;10160;50.926;4.374;2023-12-22T02:37:52;10.50;99.90
19999;DHT22;10160;50.926;4.374;2023-12-22T02:40:18;10.50;99.90
19999;DHT22;10160;50.926;4.374;2023-12-22T02:42:45;10.50;99.90
19999;DHT22;10160;50.926;4.374;2023-12-22T02:45:19;10.60;99.90
19999;DHT22;10160;50.926;4.374;2023-12-22T02:47:45;10.60;99.90
19999;DHT22;10160;50.926;4.374;2023-12-22T02:50:12;10.50;99.90
19999;DHT22;10160;50.926;4.374;2023-12-22T02:52:38;10.50;99.90
19999;DHT22;10160;50.926;4.374;2023-12-22T02:55:05;10.50;99.90
19999;DHT22;10160;50.926;4.374;2023-12-22T02:57:30;10.40;99.90
19999;DHT22;10160;50.926;4.374;2023-12-22T02:59:59;10.40;99.90
19999;DHT22;10160;50.926;4.374;2023-12-22T03:02:25;10.30;99.90
19999;DHT22;10160;50.926;4.374;2023-12-22T03:04:51;10.30;99.90
19999;DHT22;10160;50.926;4.374;2023-12-22T03:07:17;10.40;99.90
19999;DHT22;10160;50.926;4.374;2023-12-22T03:09:43;10.30;99.90
19999;DHT22;10160;50.926;4.374;2023-12-22T03:12:09;10.20;99.90
19999;DHT22;10160;50.926;4.374;2023-12-22T03:14:35;10.30;99.90
19999;DHT22;10160;50.926;4.374;2023-12-22T03:17:03;10.40;99.90
19999;DHT22;10160;50.926;4.374;2023-12-22T03:19:29;10.30;99.90
19999;DHT22;10160;50.926;4.374;2023-12-22T03:22:00;10.40;99.90
19999;DHT22;10160;50.926;4.374;2023-12-22T03:24:26;10.40;99.90
19999;DHT22;10160;50.926;4.374;2023-12-22T03:26:54;10.50;99.90
19999;DHT22;10160;50.926;4.374;2023-12-22T03:29:19;10.30;99.90
19999;DHT22;10160;50.926;4.374;2023-12-22T03:31:45;10.30;99.90
19999;DHT22;10160;50.926;4.374;2023-12-22T03:34:12;10.30;99.90
19999;DHT22;10160;50.926;4.374;2023-12-22T03:36:37;10.20;99.90
19999;DHT22;10160;50.926;4.374;2023-12-22T03:39:03;10.20;99.90
19999;DHT22;10160;50.926;4.374;2023-12-22T03:41:29;10.20;99.90
19999;DHT22;10160;50.926;4.374;2023-12-22T03:43:58;10.20;99.90
19999;DHT22;10160;50.926;4.374;2023-12-22T03:46:24;10.20;99.90
19999;DHT22;10160;50.926;4.374;2023-12-22T03:48:53;10.20;99.90
19999;DHT22;10160;50.926;4.374;2023-12-22T03:51:19;10.00;99.90
19999;DHT22;10160;50.926;4.374;2023-12-22T03:53:44;10.00;99.90
19999;DHT22;10160;50.926;4.374;2023-12-22T03:56:10;10.10;99.90
19999;DHT22;10160;50.926;4.374;2023-12-22T03:58:36;10.10;99.90
19999;DHT22;10160;50.926;4.374;2023-12-22T04:01:05;9.90;99.90
19999;DHT22;10160;50.926;4.374;2023-12-22T04:03:33;10.00;99.90
19999;DHT22;10160;50.926;4.374;2023-12-22T04:06:03;10.10;99.90
19999;DHT22;10160;50.926;4.374;2023-12-22T04:08:32;10.10;99.90
19999;DHT22;10160;50.926;4.374;2023-12-22T04:10:57;10.10;99.90
19999;DHT22;10160;50.926;4.374;2023-12-22T04:13:23;10.00;99.90
19999;DHT22;10160;50.926;4.374;2023-12-22T04:15:51;9.90;99.90
19999;DHT22;10160;50.926;4.374;2023-12-22T04:18:17;9.80;99.90
19999;DHT22;10160;50.926;4.374;2023-12-22T04:20:43;9.70;99.90
19999;DHT22;10160;50.926;4.374;2023-12-22T04:23:08;9.60;99.90
19999;DHT22;10160;50.926;4.374;2023-12-22T04:25:34;9.60;99.90
19999;DHT22;10160;50.926;4.374;2023-12-22T04:27:59;9.60;99.90
19999;DHT22;10160;50.926;4.374;2023-12-22T04:30:25;9.60;99.90
19999;DHT22;10160;50.926;4.374;2023-12-22T04:32:53;9.50;99.90
19999;DHT22;10160;50.926;4.374;2023-12-22T04:35:18;9.50;99.90
19999;DHT22;10160;50.926;4.374;2023-12-22T04:37:44;9.50;99.90
19999;DHT22;10160;50.926;4.374;2023-12-22T04:40:10;9.60;99.90
19999;DHT22;10160;50.926;4.374;2023-12-22T04:42:36;9.60;99.90
19999;DHT22;10160;50.926;4.374;2023-12-22T04:45:01;9.60;99.90
19999;DHT22;10160;50.926;4.374;2023-12-22T04:47:27;9.50;99.90
19999;DHT22;10160;50.926;4.374;2023-12-22T04:49:53;9.40;99.90
19999;DHT22;10160;50.926;4.374;2023-12-22T04:52:18;9.40;99.90
19999;DHT22;10160;50.926;4.374;2023-12-22T04:54:44;9.40;99.90
19999;DHT22;10160;50.926;4.374;2023-12-22T04:57:10;9.50;99.90
19999;DHT22;10160;50.926;4.374;2023-12-22T04:59:35;9.50;99.90
19999;DHT22;10160;50.926;4.374;2023-12-22T05:02:01;9.40;99.90
19999;DHT22;10160;50.926;4.374;2023-12-22T05:04:27;9.40;99.90
19999;DHT22;10160;50.926;4.374;2023-12-22T05:06:56;9.40;99.90
19999;DHT22;10160;50.926;4.374;2023-12-22T05:09:23;9.50;99.90
19999;DHT22;10160;50.926;4.374;2023-12-22T05:11:50;9.50;99.90
19999;DHT22;10160;50.926;4.374;2023-12-22T05:14:16;9.50;99.90
19999;DHT22;10160;50.926;4.374;2023-12-22T05:16:42;9.60;99.90
19999;DHT22;10160;50.926;4.374;2023-12-22T05:19:07;9.70;99.90
19999;DHT22;10160;50.926;4.374;2023-12-22T05:21:33;9.60;99.90
19999;DHT22;10160;50.926;4.374;2023-12-22T05:23:59;9.70;99.90
19999;DHT22;10160;50.926;4.374;2023-12-22T05:26:24;9.80;99.90
19999;DHT22;10160;50.926;4.374;2023-12-22T05:28:50;9.90;99.90
19999;DHT22;10160;50.926;4.374;2023-12-22T05:31:19;9.90;99.90
19999;DHT22;10160;50.926;4.374;2023-12-22T05:33:45;10.00;99.90
19999;DHT22;10160;50.926;4.374;2023-12-22T05:36:10;10.10;99.90
19999;DHT22;10160;50.926;4.374;2023-12-22T05:38:48;10.10;99.90
19999;DHT22;10160;50.926;4.374;2023-12-22T05:41:14;10.10;99.90
19999;DHT22;10160;50.926;4.374;2023-12-22T05:43:42;10.20;99.90
19999;DHT22;10160;50.926;4.374;2023-12-22T05:46:08;10.30;99.90
19999;DHT22;10160;50.926;4.374;2023-12-22T05:48:35;10.20;99.90
19999;DHT22;10160;50.926;4.374;2023-12-22T05:51:03;10.30;99.90
19999;DHT22;10160;50.926;4.374;2023-12-22T05:53:39;10.20;99.90
19999;DHT22;10160;50.926;4.374;2023-12-22T05:56:16;10.30;99.90
19999;DHT22;10160;50.926;4.374;2023-12-22T05:58:41;10.30;99.90
19999;DHT22;10160;50.926;4.374;2023-12-22T06:01:07;10.20;99.90
19999;DHT22;10160;50.926;4.374;2023-12-22T06:03:33;10.30;99.90
19999;DHT22;10160;50.926;4.374;2023-12-22T06:06:00;10.30;99.90
19999;DHT22;10160;50.926;4.374;2023-12-22T06:08:26;10.30;99.90
19999;DHT22;10160;50.926;4.374;2023-12-22T06:10:51;10.40;99.90
19999;DHT22;10160;50.926;4.374;2023-12-22T06:13:17;10.40;99.90
19999;DHT22;10160;50.926;4.374;2023-12-22T06:15:43;10.30;99.90
19999;DHT22;10160;50.926;4.374;2023-12-22T06:18:08;10.30;99.90
19999;DHT22;10160;50.926;4.374;2023-12-22T06:20:34;10.30;99.90
19999;DHT22;10160;50.926;4.374;2023-12-22T06:22:59;10.40;99.90
19999;DHT22;10160;50.926;4.374;2023-12-22T06:25:25;10.40;99.90
19999;DHT22;10160;50.926;4.374;2023-12-22T06:27:51;10.40;99.90
19999;DHT22;10160;50.926;4.374;2023-12-22T06:30:16;10.40;99.90
19999;DHT22;10160;50.926;4.374;2023-12-22T06:32:42;10.40;99.90
19999;DHT22;10160;50.926;4.374;2023-12-22T06:35:08;10.30;99.90
19999;DHT22;10160;50.926;4.374;2023-12-22T06:37:35;10.20;99.90
19999;DHT22;10160;50.926;4.374;2023-12-22T06:40:01;10.20;99.90
19999;DHT22;10160;50.926;4.374;2023-12-22T06:42:26;10.20;99.90
19999;DHT22;10160;50.926;4.374;2023-12-22T06:44:52;10.20;99.90
19999;DHT22;10160;50.926;4.374;2023-12-22T06:47:17;10.20;99.90
19999;DHT22;10160;50.926;4.374;2023-12-22T06:49:43;10.30;99.90
19999;DHT22;10160;50.926;4.374;2023-12-22T06:52:09;10.20;99.90
19999;DHT22;10160;50.926;4.374;2023-12-22T06:54:36;10.10;99.90
19999;DHT22;10160;50.926;4.374;2023-12-22T06:57:02;10.00;99.90
19999;DHT22;10160;50.926;4.374;2023-12-22T06:59:28;10.10;99.90
19999;DHT22;10160;50.926;4.374;2023-12-22T07:01:53;10.00;99.90
19999;DHT22;10160;50.926;4.374;2023-12-22T07:04:21;10.00;99.90
19999;DHT22;10160;50.926;4.374;2023-12-22T07:06:46;10.00;99.90
19999;DHT22;10160;50.926;4.374;2023-12-22T07:11:47;10.00;99.90
19999;DHT22;10160;50.926;4.374;2023-12-22T07:14:13;9.90;99.90
19999;DHT22;10160;50.926;4.374;2023-12-22T07:16:39;10.00;99.90
19999;DHT22;10160;50.926;4.374;2023-12-22T07:19:05;10.10;99.90
19999;DHT22;10160;50.926;4.374;2023-12-22T07:21:31;10.00;99.90
19999;DHT22;10160;50.926;4.374;2023-12-22T07:23:57;10.00;99.90
19999;DHT22;10160;50.926;4.374;2023-12-22T07:26:27;10.00;99.90
19999;DHT22;10160;50.926;4.374;2023-12-22T07:28:53;10.00;99.90
19999;DHT22;10160;50.926;4.374;2023-12-22T07:31:19;10.00;99.90
19999;DHT22;10160;50.926;4.374;2023-12-22T07:33:45;10.00;99.90
19999;DHT22;10160;50.926;4.374;2023-12-22T07:36:11;10.10;99.90
19999;DHT22;10160;50.926;4.374;2023-12-22T07:38:37;10.10;99.90
19999;DHT22;10160;50.926;4.374;2023-12-22T07:41:05;10.10;99.90
19999;DHT22;10160;50.926;4.374;2023-12-22T07:43:33;10.10;99.90
19999;DHT22;10160;50.926;4.374;2023-12-22T07:45:59;10.10;99.90
19999;DHT22;10160;50.926;4.374;2023-12-22T07:48:24;10.20;99.90
19999;DHT22;10160;50.926;4.374;2023-12-22T07:50:50;10.20;99.90
19999;DHT22;10160;50.926;4.374;2023-12-22T07:53:16;10.10;99.90
19999;DHT22;10160;50.926;4.374;2023-12-22T07:55:44;10.20;99.90
19999;DHT22;10160;50.926;4.374;2023-12-22T07:58:10;10.20;99.90
19999;DHT22;10160;50.926;4.374;2023-12-22T08:00:36;10.20;99.90
19999;DHT22;10160;50.926;4.374;2023-12-22T08:03:02;10.20;99.90
19999;DHT22;10160;50.926;4.374;2023-12-22T08:05:28;10.30;99.90
19999;DHT22;10160;50.926;4.374;2023-12-22T08:07:55;10.20;99.90
19999;DHT22;10160;50.926;4.374;2023-12-22T08:10:24;10.30;99.90
19999;DHT22;10160;50.926;4.374;2023-12-22T08:12:49;10.30;99.90
19999;DHT22;10160;50.926;4.374;2023-12-22T08:15:15;10.20;99.90
19999;DHT22;10160;50.926;4.374;2023-12-22T08:17:50;10.20;99.90
19999;DHT22;10160;50.926;4.374;2023-12-22T08:20:18;10.20;99.90
19999;DHT22;10160;50.926;4.374;2023-12-22T08:22:47;10.20;99.90
19999;DHT22;10160;50.926;4.374;2023-12-22T08:25:13;10.20;99.90
19999;DHT22;10160;50.926;4.374;2023-12-22T08:27:39;10.20;99.90
19999;DHT22;10160;50.926;4.374;2023-12-22T08:30:06;10.20;99.90
19999;DHT22;10160;50.926;4.374;2023-12-22T08:32:32;10.20;99.90
19999;DHT22;10160;50.926;4.374;2023-12-22T08:34:58;10.10;99.90
19999;DHT22;10160;50.926;4.374;2023-12-22T08:37:23;10.20;99.90
19999;DHT22;10160;50.926;4.374;2023-12-22T08:39:49;10.30;99.90
19999;DHT22;10160;50.926;4.374;2023-12-22T08:42:17;10.30;99.90
19999;DHT22;10160;50.926;4.374;2023-12-22T08:44:42;10.20;99.90
19999;DHT22;10160;50.926;4.374;2023-12-22T08:47:08;10.30;99.90
19999;DHT22;10160;50.926;4.374;2023-12-22T08:49:34;10.40;99.90
19999;DHT22;10160;50.926;4.374;2023-12-22T08:52:00;10.40;99.90
19999;DHT22;10160;50.926;4.374;2023-12-22T08:54:27;10.40;99.90
19999;DHT22;10160;50.926;4.374;2023-12-22T08:56:53;10.40;99.90
19999;DHT22;10160;50.926;4.374;2023-12-22T08:59:19;10.30;99.90
19999;DHT22;10160;50.926;4.374;2023-12-22T09:01:45;10.40;99.90
19999;DHT22;10160;50.926;4.374;2023-12-22T09:04:11;10.50;99.90
19999;DHT22;10160;50.926;4.374;2023-12-22T09:06:37;10.50;99.90
19999;DHT22;10160;50.926;4.374;2023-12-22T09:09:03;10.50;99.90
19999;DHT22;10160;50.926;4.374;2023-12-22T09:11:31;10.50;99.90
19999;DHT22;10160;50.926;4.374;2023-12-22T09:13:57;10.50;99.90
19999;DHT22;10160;50.926;4.374;2023-12-22T09:16:23;10.50;99.90
19999;DHT22;10160;50.926;4.374;2023-12-22T09:18:51;10.50;99.90
19999;DHT22;10160;50.926;4.374;2023-12-22T09:21:17;10.50;99.90
19999;DHT22;10160;50.926;4.374;2023-12-22T09:23:46;10.50;99.90
19999;DHT22;10160;50.926;4.374;2023-12-22T09:26:13;10.60;99.90
19999;DHT22;10160;50.926;4.374;2023-12-22T09:28:39;10.60;99.90
19999;DHT22;10160;50.926;4.374;2023-12-22T09:31:06;10.60;99.90
19999;DHT22;10160;50.926;4.374;2023-12-22T09:33:32;10.60;99.90
19999;DHT22;10160;50.926;4.374;2023-12-22T09:35:58;10.50;99.90
19999;DHT22;10160;50.926;4.374;2023-12-22T09:38:23;10.60;99.90
19999;DHT22;10160;50.926;4.374;2023-12-22T09:40:52;10.60;99.90
19999;DHT22;10160;50.926;4.374;2023-12-22T09:43:19;10.70;99.90
19999;DHT22;10160;50.926;4.374;2023-12-22T09:45:49;10.70;99.90
19999;DHT22;10160;50.926;4.374;2023-12-22T09:48:17;10.80;99.90
19999;DHT22;10160;50.926;4.374;2023-12-22T09:50:44;10.90;99.90
19999;DHT22;10160;50.926;4.374;2023-12-22T09:53:13;10.90;99.90
19999;DHT22;10160;50.926;4.374;2023-12-22T09:55:45;10.90;99.90
19999;DHT22;10160;50.926;4.374;2023-12-22T09:58:15;10.90;99.90
19999;DHT22;10160;50.926;4.374;2023-12-22T10:00:44;10.90;99.90
19999;DHT22;10160;50.926;4.374;2023-12-22T10:03:19;11.00;99.90
19999;DHT22;10160;50.926;4.374;2023-12-22T10:05:46;11.00;99.90
19999;DHT22;10160;50.926;4.374;2023-12-22T10:08:11;11.10;99.90
19999;DHT22;10160;50.926;4.374;2023-12-22T10:10:41;11.10;99.90
19999;DHT22;10160;50.926;4.374;2023-12-22T10:13:08;11.20;99.90
19999;DHT22;10160;50.926;4.374;2023-12-22T10:15:41;11.10;99.90
19999;DHT22;10160;50.926;4.374;2023-12-22T10:18:09;11.30;99.90
19999;DHT22;10160;50.926;4.374;2023-12-22T10:20:38;11.30;99.90
19999;DHT22;10160;50.926;4.374;2023-12-22T10:23:05;11.20;99.90
19999;DHT22;10160;50.926;4.374;2023-12-22T10:25:31;11.30;99.90
19999;DHT22;10160;50.926;4.374;2023-12-22T10:27:58;11.30;99.90
19999;DHT22;10160;50.926;4.374;2023-12-22T10:30:33;11.30;99.90
19999;DHT22;10160;50.926;4.374;2023-12-22T10:33:04;11.40;99.90
19999;DHT22;10160;50.926;4.374;2023-12-22T10:35:32;11.30;99.90
19999;DHT22;10160;50.926;4.374;2023-12-22T10:37:58;11.30;99.90
19999;DHT22;10160;50.926;4.374;2023-12-22T10:40:28;11.20;99.90
19999;DHT22;10160;50.926;4.374;2023-12-22T10:42:58;11.20;99.90
19999;DHT22;10160;50.926;4.374;2023-12-22T10:45:24;11.20;99.90
19999;DHT22;10160;50.926;4.374;2023-12-22T10:47:50;11.30;99.90
19999;DHT22;10160;50.926;4.374;2023-12-22T10:50:19;11.30;99.90
19999;DHT22;10160;50.926;4.374;2023-12-22T10:52:49;11.40;99.90
19999;DHT22;10160;50.926;4.374;2023-12-22T10:55:16;11.30;99.90
19999;DHT22;10160;50.926;4.374;2023-12-22T10:57:41;11.30;99.90
19999;DHT22;10160;50.926;4.374;2023-12-22T11:00:10;11.20;99.90
19999;DHT22;10160;50.926;4.374;2023-12-22T11:02:47;11.20;99.90
19999;DHT22;10160;50.926;4.374;2023-12-22T11:05:15;11.10;99.90
19999;DHT22;10160;50.926;4.374;2023-12-22T11:07:49;11.10;99.90
19999;DHT22;10160;50.926;4.374;2023-12-22T11:10:19;11.10;99.90
19999;DHT22;10160;50.926;4.374;2023-12-22T11:12:47;11.10;99.90
19999;DHT22;10160;50.926;4.374;2023-12-22T11:15:14;11.10;99.90
19999;DHT22;10160;50.926;4.374;2023-12-22T11:17:42;11.10;99.90
19999;DHT22;10160;50.926;4.374;2023-12-22T11:20:09;11.10;99.90
19999;DHT22;10160;50.926;4.374;2023-12-22T11:22:36;11.10;99.90
19999;DHT22;10160;50.926;4.374;2023-12-22T11:25:03;11.00;99.90
19999;DHT22;10160;50.926;4.374;2023-12-22T11:27:29;11.00;99.90
19999;DHT22;10160;50.926;4.374;2023-12-22T11:29:55;11.10;99.90
19999;DHT22;10160;50.926;4.374;2023-12-22T11:32:22;11.20;99.90
19999;DHT22;10160;50.926;4.374;2023-12-22T11:34:48;11.20;99.90
19999;DHT22;10160;50.926;4.374;2023-12-22T11:37:15;11.20;99.90
19999;DHT22;10160;50.926;4.374;2023-12-22T11:39:42;11.30;99.90
19999;DHT22;10160;50.926;4.374;2023-12-22T11:42:15;11.40;99.90
19999;DHT22;10160;50.926;4.374;2023-12-22T11:44:41;11.50;99.90
19999;DHT22;10160;50.926;4.374;2023-12-22T11:47:09;11.40;99.90
19999;DHT22;10160;50.926;4.374;2023-12-22T11:49:37;11.50;99.90
19999;DHT22;10160;50.926;4.374;2023-12-22T11:52:14;11.50;99.90
19999;DHT22;10160;50.926;4.374;2023-12-22T11:54:47;11.50;99.90
19999;DHT22;10160;50.926;4.374;2023-12-22T11:57:32;11.50;99.90
19999;DHT22;10160;50.926;4.374;2023-12-22T12:00:03;11.40;99.90
19999;DHT22;10160;50.926;4.374;2023-12-22T12:02:34;11.30;99.90
19999;DHT22;10160;50.926;4.374;2023-12-22T12:05:01;11.30;99.90
19999;DHT22;10160;50.926;4.374;2023-12-22T12:10:12;11.40;99.90
19999;DHT22;10160;50.926;4.374;2023-12-22T12:12:39;11.50;99.90
19999;DHT22;10160;50.926;4.374;2023-12-22T12:15:10;11.60;99.90
19999;DHT22;10160;50.926;4.374;2023-12-22T12:17:39;11.60;99.90
19999;DHT22;10160;50.926;4.374;2023-12-22T12:20:06;11.70;99.90
19999;DHT22;10160;50.926;4.374;2023-12-22T12:22:37;11.80;99.90
19999;DHT22;10160;50.926;4.374;2023-12-22T12:25:12;11.90;99.90
19999;DHT22;10160;50.926;4.374;2023-12-22T12:27:38;11.80;99.90
19999;DHT22;10160;50.926;4.374;2023-12-22T12:30:12;11.80;99.90
19999;DHT22;10160;50.926;4.374;2023-12-22T12:32:38;11.80;99.90
19999;DHT22;10160;50.926;4.374;2023-12-22T12:35:04;11.90;99.90
19999;DHT22;10160;50.926;4.374;2023-12-22T12:37:34;11.90;99.90
19999;DHT22;10160;50.926;4.374;2023-12-22T12:40:03;11.80;99.90
19999;DHT22;10160;50.926;4.374;2023-12-22T12:42:31;11.70;99.90
19999;DHT22;10160;50.926;4.374;2023-12-22T12:44:57;11.70;99.90
19999;DHT22;10160;50.926;4.374;2023-12-22T12:47:22;11.70;99.90
19999;DHT22;10160;50.926;4.374;2023-12-22T12:50:02;11.70;99.90
19999;DHT22;10160;50.926;4.374;2023-12-22T12:52:28;11.70;99.90
19999;DHT22;10160;50.926;4.374;2023-12-22T12:54:54;11.80;99.90
19999;DHT22;10160;50.926;4.374;2023-12-22T12:57:21;11.80;99.90
19999;DHT22;10160;50.926;4.374;2023-12-22T12:59:48;11.80;99.90
19999;DHT22;10160;50.926;4.374;2023-12-22T13:02:15;11.80;99.90
19999;DHT22;10160;50.926;4.374;2023-12-22T13:04:44;11.80;99.90
19999;DHT22;10160;50.926;4.374;2023-12-22T13:07:10;11.80;99.90
19999;DHT22;10160;50.926;4.374;2023-12-22T13:09:38;11.80;99.90
19999;DHT22;10160;50.926;4.374;2023-12-22T13:12:04;11.80;99.90
19999;DHT22;10160;50.926;4.374;2023-12-22T13:14:33;11.80;99.90
19999;DHT22;10160;50.926;4.374;2023-12-22T13:17:01;11.80;99.90
19999;DHT22;10160;50.926;4.374;2023-12-22T13:19:27;11.70;99.90
19999;DHT22;10160;50.926;4.374;2023-12-22T13:21:54;11.60;99.90
19999;DHT22;10160;50.926;4.374;2023-12-22T13:24:19;11.70;99.90
19999;DHT22;10160;50.926;4.374;2023-12-22T13:26:45;11.60;99.90
19999;DHT22;10160;50.926;4.374;2023-12-22T13:29:12;11.70;99.90
19999;DHT22;10160;50.926;4.374;2023-12-22T13:31:39;11.70;99.90
19999;DHT22;10160;50.926;4.374;2023-12-22T13:34:13;11.70;99.90
19999;DHT22;10160;50.926;4.374;2023-12-22T13:36:39;11.70;99.90
19999;DHT22;10160;50.926;4.374;2023-12-22T13:39:06;11.70;99.90
19999;DHT22;10160;50.926;4.374;2023-12-22T13:41:38;11.70;99.90
19999;DHT22;10160;50.926;4.374;2023-12-22T13:44:06;11.80;99.90
19999;DHT22;10160;50.926;4.374;2023-12-22T13:46:35;11.80;99.90
19999;DHT22;10160;50.926;4.374;2023-12-22T13:49:02;11.80;99.90
19999;DHT22;10160;50.926;4.374;2023-12-22T13:51:41;11.80;99.90
19999;DHT22;10160;50.926;4.374;2023-12-22T13:54:07;11.70;99.90
19999;DHT22;10160;50.926;4.374;2023-12-22T13:56:37;11.70;99.90
19999;DHT22;10160;50.926;4.374;2023-12-22T13:59:09;11.70;99.90
19999;DHT22;10160;50.926;4.374;2023-12-22T14:01:35;11.60;99.90
19999;DHT22;10160;50.926;4.374;2023-12-22T14:04:01;11.60;99.90
19999;DHT22;10160;50.926;4.374;2023-12-22T14:06:27;11.60;99.90
19999;DHT22;10160;50.926;4.374;2023-12-22T14:08:56;11.60;99.90
19999;DHT22;10160;50.926;4.374;2023-12-22T14:11:25;11.60;99.90
19999;DHT22;10160;50.926;4.374;2023-12-22T14:13:50;11.70;99.90
19999;DHT22;10160;50.926;4.374;2023-12-22T14:16:16;11.60;99.90
19999;DHT22;10160;50.926;4.374;2023-12-22T14:18:42;11.60;99.90
19999;DHT22;10160;50.926;4.374;2023-12-22T14:21:08;11.70;99.90
19999;DHT22;10160;50.926;4.374;2023-12-22T14:23:33;11.80;99.90
19999;DHT22;10160;50.926;4.374;2023-12-22T14:25:59;11.80;99.90
19999;DHT22;10160;50.926;4.374;2023-12-22T14:28:25;11.80;99.90
19999;DHT22;10160;50.926;4.374;2023-12-22T14:30:53;11.90;99.90
19999;DHT22;10160;50.926;4.374;2023-12-22T14:33:19;11.90;99.90
19999;DHT22;10160;50.926;4.374;2023-12-22T14:35:45;11.90;99.90
19999;DHT22;10160;50.926;4.374;2023-12-22T14:38:10;11.90;99.90
19999;DHT22;10160;50.926;4.374;2023-12-22T14:40:36;11.90;99.90
19999;DHT22;10160;50.926;4.374;2023-12-22T14:43:01;11.90;99.90
19999;DHT22;10160;50.926;4.374;2023-12-22T14:45:30;11.90;99.90
19999;DHT22;10160;50.926;4.374;2023-12-22T14:47:56;11.90;99.90
19999;DHT22;10160;50.926;4.374;2023-12-22T14:50:25;11.90;99.90
19999;DHT22;10160;50.926;4.374;2023-12-22T14:52:53;11.90;99.90
19999;DHT22;10160;50.926;4.374;2023-12-22T14:55:19;11.90;99.90
19999;DHT22;10160;50.926;4.374;2023-12-22T14:57:45;11.90;99.90
19999;DHT22;10160;50.926;4.374;2023-12-22T15:00:11;11.90;99.90
19999;DHT22;10160;50.926;4.374;2023-12-22T15:02:37;11.80;99.90
19999;DHT22;10160;50.926;4.374;2023-12-22T15:05:06;11.90;99.90
19999;DHT22;10160;50.926;4.374;2023-12-22T15:07:31;11.90;99.90
19999;DHT22;10160;50.926;4.374;2023-12-22T15:10:00;12.00;99.90
19999;DHT22;10160;50.926;4.374;2023-12-22T15:12:29;11.90;99.90
19999;DHT22;10160;50.926;4.374;2023-12-22T15:15:04;11.80;99.90
19999;DHT22;10160;50.926;4.374;2023-12-22T15:17:33;11.90;99.90
19999;DHT22;10160;50.926;4.374;2023-12-22T15:20:01;12.00;99.90
19999;DHT22;10160;50.926;4.374;2023-12-22T15:22:29;12.00;99.90
19999;DHT22;10160;50.926;4.374;2023-12-22T15:24:57;12.00;99.90
19999;DHT22;10160;50.926;4.374;2023-12-22T15:27:23;12.00;99.90
19999;DHT22;10160;50.926;4.374;2023-12-22T15:29:49;11.90;99.90
19999;DHT22;10160;50.926;4.374;2023-12-22T15:32:19;12.00;99.90
19999;DHT22;10160;50.926;4.374;2023-12-22T15:34:44;12.00;99.90
19999;DHT22;10160;50.926;4.374;2023-12-22T15:37:11;12.00;99.90
19999;DHT22;10160;50.926;4.374;2023-12-22T15:39:37;11.90;99.90